Time;durP1;ratioP1;P1;durP2;ratioP2;P2;SDS_P1;SDS_P2;PMS_P1;PMS_P2;Temp;Humidity;BMP_temperature;BMP_pressure;BME280_temperature;BME280_humidity;BME280_pressure;Samples;Min_cycle;Max_cycle;Signal;HPM_P1;HPM_P2
2023/03/23 17:24:13;;;;;;;39.10;16.30;;;;;;;15.62;77.29;95707.72;5077681;28;21058;-69
2023/03/23 17:26:39;;;;;;;83.30;36.00;;;;;;;15.49;75.35;95715.78;5077733;28;20208;-67
2023/03/23 17:29:06;;;;;;;17.55;8.00;;;;;;;15.58;75.81;95712.66;5076152;28;20585;-67
2023/03/23 17:31:33;;;;;;;42.10;18.77;;;;;;;15.57;76.55;95715.53;5078163;28;20228;-67
2023/03/23 17:34:00;;;;;;;72.45;27.88;;;;;;;15.50;77.63;95704.97;5077575;28;20196;-70
2023/03/23 17:36:27;;;;;;;72.65;28.52;;;;;;;15.45;77.13;95712.78;5078304;28;20203;-70
2023/03/23 17:38:53;;;;;;;90.85;31.17;;;;;;;15.36;77.19;95707.97;5078004;28;20207;-70
2023/03/23 17:41:21;;;;;;;93.97;28.23;;;;;;;15.39;76.30;95711.00;5078518;28;20587;-70
2023/03/23 17:43:47;;;;;;;60.90;16.25;;;;;;;15.35;77.35;95704.50;5076666;28;20220;-70
2023/03/23 17:46:15;;;;;;;55.08;12.48;;;;;;;15.34;78.25;95718.81;5078254;28;20200;-70
2023/03/23 17:48:41;;;;;;;50.47;15.00;;;;;;;15.26;77.66;95723.56;5077385;28;20619;-70
2023/03/23 17:51:08;;;;;;;52.97;27.30;;;;;;;15.26;78.50;95718.25;5078259;28;20802;-70
2023/03/23 17:53:35;;;;;;;54.10;20.75;;;;;;;15.35;78.13;95727.56;5077240;28;20214;-70
2023/03/23 17:56:02;;;;;;;52.75;10.52;;;;;;;15.30;79.45;95727.44;5077789;28;20698;-70
2023/03/23 17:58:30;;;;;;;49.30;11.68;;;;;;;15.27;79.68;95727.84;5077632;28;20285;-70
2023/03/23 18:00:57;;;;;;;41.55;14.13;;;;;;;15.18;79.13;95728.31;5077960;28;21090;-70
2023/03/23 18:03:24;;;;;;;50.45;18.08;;;;;;;15.19;81.27;95722.78;5077257;28;20224;-70
2023/03/23 18:05:52;;;;;;;53.05;19.70;;;;;;;15.15;80.97;95721.59;5076991;28;20200;-70
2023/03/23 18:08:18;;;;;;;27.58;9.57;;;;;;;15.29;80.53;95723.16;5077632;28;20239;-70
2023/03/23 18:10:45;;;;;;;28.40;9.38;;;;;;;15.19;80.58;95717.47;5078119;28;20700;-69
2023/03/23 18:13:12;;;;;;;20.45;5.65;;;;;;;15.13;79.55;95723.66;5077665;28;20276;-69
2023/03/23 18:15:44;;;;;;;14.25;5.60;;;;;;;15.24;79.90;95725.63;5078293;28;20211;-69
2023/03/23 18:18:10;;;;;;;11.95;4.10;;;;;;;15.09;80.16;95727.75;5077290;28;21276;-70
2023/03/23 18:20:37;;;;;;;12.77;4.10;;;;;;;15.08;80.12;95726.13;5077627;28;20215;-69
2023/03/23 18:23:03;;;;;;;8.73;3.38;;;;;;;15.10;78.78;95723.28;5077343;28;20219;-70
2023/03/23 18:25:30;;;;;;;15.20;8.65;;;;;;;15.08;78.97;95720.81;5077251;28;20208;-69
2023/03/23 18:27:57;;;;;;;14.88;6.05;;;;;;;15.08;77.41;95726.13;5076859;28;20465;-69
2023/03/23 18:30:25;;;;;;;13.77;4.68;;;;;;;15.00;78.19;95720.31;5077428;28;20208;-69
2023/03/23 18:32:53;;;;;;;9.27;4.03;;;;;;;14.96;79.08;95722.56;5077543;28;20204;-70
2023/03/23 18:35:20;;;;;;;9.52;5.72;;;;;;;15.04;78.70;95729.44;5064660;28;20197;-69
2023/03/23 18:37:47;;;;;;;11.50;5.97;;;;;;;14.98;78.36;95725.84;5064498;28;20208;-69
2023/03/23 18:40:16;;;;;;;13.63;6.60;;;;;;;15.03;78.86;95718.03;5063939;28;20205;-70
2023/03/23 18:42:43;;;;;;;11.20;5.38;;;;;;;14.99;78.91;95719.47;5063831;28;20642;-69
2023/03/23 18:45:10;;;;;;;16.25;8.65;;;;;;;14.96;78.32;95716.47;5062647;28;20804;-69
2023/03/23 18:47:37;;;;;;;8.07;4.85;;;;;;;14.86;79.06;95719.56;5063390;28;20205;-69
2023/03/23 18:50:07;;;;;;;8.45;3.30;;;;;;;15.00;78.94;95718.44;5057840;28;20950;-69
2023/03/23 18:52:34;;;;;;;5.38;2.80;;;;;;;14.91;79.35;95711.78;5063736;28;20220;-69
2023/03/23 18:55:01;;;;;;;5.93;3.30;;;;;;;14.93;79.54;95716.88;5062982;28;20575;-69
2023/03/23 18:57:28;;;;;;;7.68;3.13;;;;;;;14.97;80.10;95718.06;5063945;28;20204;-69
2023/03/23 18:59:54;;;;;;;7.75;2.88;;;;;;;14.74;81.18;95710.69;5063138;28;20213;-69
2023/03/23 19:02:21;;;;;;;6.13;3.08;;;;;;;14.82;82.10;95710.44;5063535;28;20220;-69
2023/03/23 19:04:49;;;;;;;6.82;3.80;;;;;;;14.83;81.59;95714.72;5062498;28;20204;-70
2023/03/23 19:07:18;;;;;;;5.70;2.97;;;;;;;14.85;81.71;95720.59;5063183;28;20220;-69
2023/03/23 19:09:46;;;;;;;6.13;3.00;;;;;;;14.74;80.44;95721.31;5063145;28;20291;-69
2023/03/23 19:12:13;;;;;;;6.10;3.17;;;;;;;14.75;80.43;95717.63;5063698;28;20256;-69
2023/03/23 19:14:40;;;;;;;7.10;3.65;;;;;;;14.76;80.32;95724.53;5062594;28;20201;-69
2023/03/23 19:17:07;;;;;;;6.75;3.47;;;;;;;14.67;80.37;95719.72;5063284;28;20208;-69
2023/03/23 19:19:34;;;;;;;5.80;3.03;;;;;;;14.73;79.21;95721.53;5063122;28;20220;-69
2023/03/23 19:22:01;;;;;;;7.55;2.90;;;;;;;14.66;80.27;95726.88;5063025;28;20601;-69
2023/03/23 19:24:29;;;;;;;5.68;3.00;;;;;;;14.60;80.55;95734.03;5062163;28;20229;-69
2023/03/23 19:26:56;;;;;;;4.65;2.97;;;;;;;14.60;80.02;95734.03;5063087;28;20273;-70
2023/03/23 19:29:23;;;;;;;4.75;2.92;;;;;;;14.59;80.33;95730.59;5063175;28;20208;-69
2023/03/23 19:31:49;;;;;;;5.47;2.97;;;;;;;14.54;79.97;95726.97;5059337;28;20227;-70
2023/03/23 19:34:16;;;;;;;8.05;3.33;;;;;;;14.53;80.03;95725.34;5061365;28;20203;-70
2023/03/23 19:36:44;;;;;;;7.93;2.92;;;;;;;14.46;80.42;95724.53;5062126;28;20204;-70
2023/03/23 19:39:11;;;;;;;6.95;3.10;;;;;;;14.47;80.03;95726.19;5062649;28;20201;-69
2023/03/23 19:41:39;;;;;;;3.83;2.60;;;;;;;14.49;80.11;95719.63;5061596;28;20232;-69
2023/03/23 19:44:07;;;;;;;5.28;2.90;;;;;;;14.47;80.31;95719.03;5060190;28;20230;-70
2023/03/23 19:46:34;;;;;;;4.63;2.90;;;;;;;14.36;81.54;95730.31;5060765;28;20213;-69
2023/03/23 19:49:01;;;;;;;7.32;2.90;;;;;;;14.33;81.62;95719.31;5060511;28;20212;-70
2023/03/23 19:51:28;;;;;;;5.45;2.70;;;;;;;14.39;79.65;95723.78;5060872;28;20277;-69
2023/03/23 19:53:55;;;;;;;6.22;3.10;;;;;;;14.47;80.27;95726.19;5060506;28;20196;-70
2023/03/23 19:56:22;;;;;;;7.82;2.70;;;;;;;14.44;79.06;95722.09;5061789;28;20208;-69
2023/03/23 19:58:50;;;;;;;5.63;2.90;;;;;;;14.50;78.80;95723.09;5060894;28;20661;-70
2023/03/23 20:01:17;;;;;;;10.02;3.10;;;;;;;14.40;79.27;95720.09;5059686;28;20228;-70
2023/03/23 20:03:45;;;;;;;6.18;2.80;;;;;;;14.50;78.55;95712.47;5060316;28;20228;-69
2023/03/23 20:06:14;;;;;;;4.60;2.97;;;;;;;14.46;78.79;95711.28;5060509;28;20213;-69
2023/03/23 20:08:42;;;;;;;5.90;3.15;;;;;;;14.55;78.53;95715.31;5061148;28;20204;-70
2023/03/23 20:11:11;;;;;;;11.38;3.25;;;;;;;14.51;77.99;95707.00;5061080;28;20321;-69
2023/03/23 20:13:38;;;;;;;6.15;2.90;;;;;;;14.58;77.38;95707.75;5060172;28;20208;-69
2023/03/23 20:16:07;;;;;;;5.32;2.90;;;;;;;14.62;77.73;95708.13;5061496;28;20216;-70
2023/03/23 20:18:33;;;;;;;8.82;3.10;;;;;;;14.54;77.55;95711.06;5061026;28;20204;-69
2023/03/23 20:21:01;;;;;;;6.43;2.92;;;;;;;14.54;78.52;95711.06;5061044;28;20229;-70
2023/03/23 20:23:27;;;;;;;6.35;3.10;;;;;;;14.52;78.50;95711.25;5061306;28;20696;-70
2023/03/23 20:25:58;;;;;;;7.20;3.25;;;;;;;14.51;78.92;95706.16;5061500;28;20212;-69
2023/03/23 20:28:24;;;;;;;7.28;3.03;;;;;;;14.43;78.54;95714.38;5061864;28;20200;-69
2023/03/23 20:31:00;;;;;;;6.97;3.47;;;;;;;14.46;79.52;95712.13;5061591;28;20227;-70
2023/03/23 20:33:29;;;;;;;6.43;3.10;;;;;;;14.43;79.15;95711.72;5061810;28;20204;-70
2023/03/23 20:35:55;;;;;;;10.82;4.15;;;;;;;14.38;78.54;95715.00;5060988;28;20282;-70
2023/03/23 20:38:22;;;;;;;7.70;3.90;;;;;;;14.31;78.42;95708.94;5061684;28;20204;-69
2023/03/23 20:40:48;;;;;;;7.32;3.75;;;;;;;14.50;77.07;95710.66;5061067;28;20220;-69
2023/03/23 20:43:15;;;;;;;10.13;5.68;;;;;;;14.40;77.33;95704.22;5061552;28;20258;-69
2023/03/23 20:45:42;;;;;;;5.32;3.53;;;;;;;14.51;76.55;95707.00;5060235;28;20219;-70
2023/03/23 20:48:08;;;;;;;5.45;3.03;;;;;;;14.57;75.64;95705.31;5060650;28;20200;-70
2023/03/23 20:50:36;;;;;;;14.07;5.40;;;;;;;14.68;75.58;95700.94;5061194;28;20632;-69
2023/03/23 20:53:03;;;;;;;8.32;3.65;;;;;;;14.61;75.19;95699.34;5062657;28;20200;-69
2023/03/23 20:55:29;;;;;;;6.70;3.40;;;;;;;14.58;75.04;95696.34;5061798;28;20212;-69
2023/03/23 20:57:56;;;;;;;8.38;4.47;;;;;;;14.57;75.03;95694.72;5062176;28;20201;-70
2023/03/23 21:00:22;;;;;;;8.90;3.20;;;;;;;14.57;74.76;95698.16;5059309;28;20971;-70
2023/03/23 21:02:52;;;;;;;6.10;2.88;;;;;;;14.65;74.49;95682.00;5060113;28;20220;-69
2023/03/23 21:05:20;;;;;;;6.15;2.88;;;;;;;14.55;75.42;95691.44;5058780;28;20204;-70
2023/03/23 21:07:49;;;;;;;6.70;2.50;;;;;;;14.65;74.81;95677.50;5061023;28;20289;-70
2023/03/23 21:10:16;;;;;;;5.50;2.88;;;;;;;14.58;75.10;95681.22;5060394;28;20672;-70
2023/03/23 21:12:43;;;;;;;4.72;2.53;;;;;;;14.52;75.52;95686.59;5059258;28;21217;-70
2023/03/23 21:15:10;;;;;;;7.90;2.78;;;;;;;14.46;76.29;95687.44;5058905;28;20200;-70
2023/03/23 21:17:36;;;;;;;4.97;2.80;;;;;;;14.44;76.60;95673.59;5059600;28;20210;-70
2023/03/23 21:20:06;;;;;;;6.68;3.10;;;;;;;14.45;76.86;95678.69;5060026;28;20208;-69
2023/03/23 21:22:33;;;;;;;5.68;2.83;;;;;;;14.40;77.02;95675.06;5059389;28;20728;-69
2023/03/23 21:25:02;;;;;;;7.18;3.08;;;;;;;14.37;77.66;95672.81;5059245;28;20224;-69
2023/03/23 21:27:28;;;;;;;4.28;2.42;;;;;;;14.35;77.72;95674.88;5059184;28;20219;-69
2023/03/23 21:29:58;;;;;;;6.35;2.75;;;;;;;14.36;78.13;95668.56;5060283;28;20201;-70
2023/03/23 21:32:24;;;;;;;6.60;2.97;;;;;;;14.25;78.16;95667.38;5059295;28;20224;-70
2023/03/23 21:34:51;;;;;;;11.68;2.55;;;;;;;14.24;78.23;95679.03;5058514;28;20231;-69
2023/03/23 21:37:18;;;;;;;6.28;2.88;;;;;;;14.21;78.83;95674.13;5058126;28;20763;-69
2023/03/23 21:39:45;;;;;;;7.43;3.22;;;;;;;14.17;78.88;95672.13;5059912;28;20751;-69
2023/03/23 21:42:13;;;;;;;10.48;2.88;;;;;;;14.13;79.10;95662.97;5058449;28;20227;-70
2023/03/23 21:44:41;;;;;;;8.80;3.22;;;;;;;13.99;79.37;95659.53;5058839;28;21046;-69
2023/03/23 21:47:07;;;;;;;9.02;3.60;;;;;;;14.05;79.52;95666.66;5059312;28;20204;-67
2023/03/23 21:49:35;;;;;;;9.88;3.35;;;;;;;14.00;79.58;95655.03;5059848;28;20567;-69
2023/03/23 21:52:02;;;;;;;8.50;3.50;;;;;;;14.00;79.94;95655.88;5058978;28;20274;-69
2023/03/23 21:54:29;;;;;;;6.20;3.50;;;;;;;13.97;79.82;95654.69;5059275;28;20203;-70
2023/03/23 21:56:56;;;;;;;7.30;3.55;;;;;;;13.98;79.86;95656.31;5059043;28;20726;-69
2023/03/23 21:59:24;;;;;;;4.68;3.33;;;;;;;14.04;79.76;95645.69;5060191;28;20204;-70
2023/03/23 22:01:51;;;;;;;7.85;3.40;;;;;;;13.97;79.86;95650.19;5059876;28;20308;-70
2023/03/23 22:04:18;;;;;;;7.80;3.30;;;;;;;14.01;79.88;95641.63;5059855;28;20217;-69
2023/03/23 22:06:44;;;;;;;5.55;3.10;;;;;;;13.99;79.67;95632.25;5060464;28;20209;-70
2023/03/23 22:09:11;;;;;;;7.03;3.60;;;;;;;14.00;79.59;95628.56;5060099;28;20203;-69
2023/03/23 22:11:39;;;;;;;7.03;3.30;;;;;;;14.03;79.05;95614.91;5063591;28;20233;-70
2023/03/23 22:14:06;;;;;;;6.95;3.17;;;;;;;13.96;79.66;95615.97;5063727;28;20227;-70
2023/03/23 22:16:34;;;;;;;11.15;3.72;;;;;;;14.07;78.42;95616.91;5064537;28;20437;-70
2023/03/23 22:19:02;;;;;;;6.03;3.03;;;;;;;13.95;78.76;95604.56;5064691;28;20291;-70
2023/03/23 22:21:29;;;;;;;10.32;3.05;;;;;;;14.02;78.18;95607.97;5064699;28;20232;-70
2023/03/23 22:23:58;;;;;;;7.13;3.25;;;;;;;14.10;78.28;95603.28;5063700;28;20282;-70
2023/03/23 22:26:26;;;;;;;5.60;3.03;;;;;;;14.11;77.75;95598.78;5064773;28;20773;-69
2023/03/23 22:28:53;;;;;;;6.15;3.40;;;;;;;14.11;77.25;95599.56;5064680;28;21022;-69
2023/03/23 22:31:22;;;;;;;4.82;2.88;;;;;;;14.19;77.48;95590.56;5065089;28;20228;-69
2023/03/23 22:33:52;;;;;;;8.88;3.10;;;;;;;14.15;78.55;95586.72;5063927;28;20253;-70
2023/03/23 22:36:19;;;;;;;5.80;2.67;;;;;;;14.03;78.87;95586.56;5064805;28;20287;-70
2023/03/23 22:38:47;;;;;;;7.18;3.15;;;;;;;14.07;78.10;95576.34;5064563;28;20203;-70
2023/03/23 22:41:17;;;;;;;5.90;2.97;;;;;;;14.11;77.71;95573.09;5064333;28;20225;-70
2023/03/23 22:43:43;;;;;;;7.72;3.08;;;;;;;14.02;77.60;95578.84;5063437;28;20207;-70
2023/03/23 22:46:10;;;;;;;6.85;3.17;;;;;;;14.03;78.23;95569.88;5064433;28;20208;-70
2023/03/23 22:48:36;;;;;;;6.93;2.95;;;;;;;14.00;79.70;95572.94;5064687;28;20197;-70
2023/03/23 22:51:05;;;;;;;5.00;2.50;;;;;;;13.97;80.11;95568.06;5064697;28;20235;-69
2023/03/23 22:53:31;;;;;;;6.47;2.83;;;;;;;13.90;80.08;95572.59;5063976;28;20211;-69
2023/03/23 22:55:58;;;;;;;5.65;3.30;;;;;;;13.81;81.35;95570.41;5064812;28;20205;-70
2023/03/23 22:58:26;;;;;;;6.97;3.10;;;;;;;13.78;82.13;95568.19;5064604;28;20208;-70
2023/03/23 23:00:56;;;;;;;6.88;3.13;;;;;;;13.82;81.88;95556.13;5064526;28;20300;-70
2023/03/23 23:03:23;;;;;;;4.95;3.20;;;;;;;13.81;80.37;95559.81;5064102;28;20200;-69
2023/03/23 23:05:51;;;;;;;8.35;3.25;;;;;;;14.03;78.41;95559.28;5064097;28;20247;-70
2023/03/23 23:08:20;;;;;;;5.60;3.63;;;;;;;14.12;77.98;95558.81;5064466;28;20571;-70
2023/03/23 23:10:49;;;;;;;5.18;3.10;;;;;;;14.01;78.81;95548.06;5064343;28;20233;-69
2023/03/23 23:13:16;;;;;;;8.40;3.17;;;;;;;13.93;79.22;95556.28;5064825;28;20201;-70
2023/03/23 23:15:45;;;;;;;6.43;3.47;;;;;;;13.90;79.11;95545.28;5063755;28;20200;-69
2023/03/23 23:18:12;;;;;;;7.32;3.90;;;;;;;13.84;79.18;95535.56;5064306;28;20651;-69
2023/03/23 23:20:39;;;;;;;7.45;3.47;;;;;;;13.89;78.50;95533.91;5063743;28;20709;-69
2023/03/23 23:23:06;;;;;;;4.97;3.22;;;;;;;13.95;77.76;95529.56;5064484;28;20236;-69
2023/03/23 23:25:35;;;;;;;5.82;3.00;;;;;;;14.08;77.05;95525.03;5063528;28;20220;-70
2023/03/23 23:28:03;;;;;;;6.53;3.50;;;;;;;14.08;76.58;95525.84;5064173;28;20657;-68
2023/03/23 23:30:30;;;;;;;5.60;3.38;;;;;;;14.10;76.17;95509.72;5064252;28;20258;-68
2023/03/23 23:32:58;;;;;;;5.35;3.13;;;;;;;14.17;75.67;95513.16;5064052;28;20205;-68
2023/03/23 23:35:25;;;;;;;8.05;3.90;;;;;;;14.11;76.40;95514.00;5063228;28;20208;-68
2023/03/23 23:37:52;;;;;;;5.85;3.08;;;;;;;14.10;76.04;95507.06;5064198;28;20205;-68
2023/03/23 23:40:20;;;;;;;8.38;3.10;;;;;;;14.12;76.05;95520.94;5064517;28;20216;-68
2023/03/23 23:42:50;;;;;;;5.93;3.30;;;;;;;14.16;76.01;95522.91;5063691;28;20712;-68
2023/03/23 23:45:18;;;;;;;5.10;3.15;;;;;;;13.98;77.51;95519.38;5063350;28;20286;-69
2023/03/23 23:47:45;;;;;;;5.90;3.47;;;;;;;13.85;78.13;95519.47;5064093;28;20740;-69
2023/03/23 23:50:13;;;;;;;6.57;3.30;;;;;;;13.82;78.53;95530.47;5064861;28;20243;-68
2023/03/23 23:52:41;;;;;;;8.00;3.80;;;;;;;13.81;78.14;95522.72;5063839;28;20593;-69
2023/03/23 23:55:10;;;;;;;12.15;4.10;;;;;;;13.81;78.24;95526.22;5062903;28;20200;-67
2023/03/23 23:57:36;;;;;;;7.93;4.07;;;;;;;13.70;78.60;95521.59;5063690;28;20209;-69
